메인 페이지
METAR-TAF:

METAR-TAF

공항 :

암스테르담 스키폴 국제공항

암스테르담, 네덜란드

위도: 52-18N, 경도: 004-46E, 고도: -4m

현재 날씨관측

예보는 11분 전, 04:25시(UTC)에 발표되었습니다.
서북서4kt
온도 14°C
습도 82%
기압 1012 hPa
시정 10km 이상
고도 6000ft 상공 구름 조금, 적란운.
시계 내 소나기

METAR: EHAM 220425Z 30004KT 9999 VCSH FEW060CB 14/11 Q1012 TEMPO 7000 -SHRA

시각: 06:36 (04:36 UTC)

예보

예보는 5 시간 28분 전, 23:08시(UTC)에 발표되었습니다.
예보 대상 시간: 22일 00시부터 23일 06시까지 (UTC)
동북동7kt
시정 10km 이상
1500m 미만 상공 구름 및 적란운 없음
확률 30% :
일시적
22일 19시부터 22일 22시까지 (UTC)
북북동13kt, 순간 최대 풍속 23kt
시정: 6000m
고도 4000ft 상공 구름 보통, 적란운.
소나기, 뇌우, 비

TAF: EHAM 212308Z 2200/2306 07007KT CAVOK PROB30 TEMPO 2219/2222 03013G23KT 6000 SHRA TSRA SCT040CB

4,000개 이상의 공항 관측 자료 및 예보 (METAR 및 TAF 보고).

지도상에서 검색 가능한 기상관측소가 노란 점과 빨간 점으로 표시되어 있습니다.

기상관측소 명을 보려면 표시 위로 마우스를 이동하세요.

날씨 관측과 예보를 보려면 클릭하세요.

지도 변경 : 확대하려면 엑스 표시가 있는 녹색 버튼, 축소하려면 빼기 표시가 있는 녹색 버튼, 다음 페이지의 지도를 보려면 녹색 화살표를 클릭하세요.


METAR-TAF: